createdAt,value
2023-04-15T00:00:18.232Z,12.94
2023-04-15T00:02:48.935Z,12.93
2023-04-15T00:04:59.275Z,12.98
2023-04-15T00:07:09.178Z,13.03
2023-04-15T00:09:19.121Z,13.08
2023-04-15T00:11:28.898Z,13.11
2023-04-15T00:13:38.577Z,13.08
2023-04-15T00:15:48.410Z,12.98
2023-04-15T00:17:58.701Z,12.98
2023-04-15T00:20:09.585Z,13.05
2023-04-15T00:22:19.681Z,13.04
2023-04-15T00:24:29.724Z,13.02
2023-04-15T00:26:39.648Z,12.93
2023-04-15T00:28:49.180Z,12.89
2023-04-15T00:30:59.114Z,12.97
2023-04-15T00:33:09.596Z,13.02
2023-04-15T00:35:19.343Z,12.93
2023-04-15T00:37:29.441Z,12.89
2023-04-15T00:39:39.431Z,12.84
2023-04-15T00:41:49.079Z,12.78
2023-04-15T00:43:59.080Z,12.70
2023-04-15T00:46:09.926Z,12.64
2023-04-15T00:48:20.561Z,12.69
2023-04-15T00:50:30.602Z,12.77
2023-04-15T00:52:41.108Z,12.84
2023-04-15T00:54:51.814Z,12.85
2023-04-15T00:57:01.554Z,12.87
2023-04-15T00:59:12.244Z,12.91
2023-04-15T01:01:26.508Z,12.94
2023-04-15T01:03:37.126Z,12.95
2023-04-15T01:05:47.385Z,12.93
2023-04-15T01:07:57.243Z,12.86
2023-04-15T01:10:07.711Z,12.69
2023-04-15T01:12:19.499Z,12.55
2023-04-15T01:14:29.520Z,12.48
2023-04-15T01:16:40.491Z,12.43
2023-04-15T01:18:51.457Z,12.40
2023-04-15T01:21:02.765Z,12.34
2023-04-15T01:23:14.272Z,12.27
2023-04-15T01:25:30.150Z,12.21
2023-04-15T01:27:41.513Z,12.17
2023-04-15T01:29:52.174Z,12.15
2023-04-15T01:32:02.622Z,12.09
2023-04-15T01:34:12.760Z,12.03
2023-04-15T01:36:22.665Z,11.96
2023-04-15T01:38:36.841Z,11.93
2023-04-15T01:40:46.500Z,11.91
2023-04-15T01:42:56.429Z,11.85
2023-04-15T01:45:06.302Z,11.86
2023-04-15T01:47:19.127Z,11.85
2023-04-15T01:49:30.254Z,11.80
2023-04-15T01:51:40.032Z,11.76
2023-04-15T01:53:50.343Z,11.70
2023-04-15T01:56:00.096Z,11.65
2023-04-15T01:58:09.937Z,11.58
2023-04-15T02:00:20.210Z,11.48
2023-04-15T02:02:31.537Z,11.36
2023-04-15T02:04:41.777Z,11.22
2023-04-15T02:06:52.596Z,11.14
2023-04-15T02:09:04.818Z,11.13
2023-04-15T02:11:14.634Z,11.08
2023-04-15T02:13:24.475Z,11.01
2023-04-15T02:15:34.936Z,10.95
2023-04-15T02:17:46.524Z,10.92
2023-04-15T02:19:59.954Z,10.91
2023-04-15T02:22:12.017Z,10.90
2023-04-15T02:24:21.970Z,10.88
2023-04-15T02:26:33.033Z,10.87
2023-04-15T02:28:43.204Z,10.84
2023-04-15T02:30:54.954Z,10.80
2023-04-15T02:33:06.509Z,10.73
2023-04-15T02:35:16.418Z,10.67
2023-04-15T02:37:28.319Z,10.66
2023-04-15T02:39:38.670Z,10.67
2023-04-15T02:41:52.355Z,10.66
2023-04-15T02:44:02.660Z,10.66
2023-04-15T02:46:15.136Z,10.66
2023-04-15T02:48:25.199Z,10.64
2023-04-15T02:50:35.572Z,10.61
2023-04-15T02:52:46.629Z,10.58
2023-04-15T02:55:00.870Z,10.55
2023-04-15T02:57:12.408Z,10.51
2023-04-15T02:59:22.077Z,10.47
2023-04-15T03:01:31.704Z,10.42
2023-04-15T03:03:41.798Z,10.35
2023-04-15T03:05:51.956Z,10.29
2023-04-15T03:08:02.298Z,10.25
2023-04-15T03:10:13.663Z,10.23
2023-04-15T03:12:24.024Z,10.21
2023-04-15T03:14:35.133Z,10.23
2023-04-15T03:16:45.102Z,10.24
2023-04-15T03:18:59.993Z,10.24
2023-04-15T03:21:09.953Z,10.23
2023-04-15T03:23:20.174Z,10.21
2023-04-15T03:25:31.974Z,10.18
2023-04-15T03:27:43.904Z,10.16
2023-04-15T03:29:54.125Z,10.13
2023-04-15T03:32:05.348Z,10.11
2023-04-15T03:34:19.555Z,10.09
2023-04-15T03:36:30.747Z,10.08
2023-04-15T03:38:40.752Z,10.06
2023-04-15T03:40:51.245Z,10.04
2023-04-15T03:43:00.988Z,10.03
2023-04-15T03:45:12.882Z,10.02
2023-04-15T03:47:23.067Z,10.01
2023-04-15T03:49:33.196Z,10.00
2023-04-15T03:51:43.536Z,10.00
2023-04-15T03:53:54.076Z,9.99
2023-04-15T03:56:04.197Z,9.97
2023-04-15T03:58:13.904Z,9.95
2023-04-15T04:00:24.008Z,9.92
2023-04-15T04:02:33.879Z,9.88
2023-04-15T04:04:44.312Z,9.84
2023-04-15T04:06:54.406Z,9.82
2023-04-15T04:09:04.229Z,9.81
2023-04-15T04:11:14.397Z,9.81
2023-04-15T04:13:24.580Z,9.80
2023-04-15T04:15:34.770Z,9.77
2023-04-15T04:17:44.598Z,9.77
2023-04-15T04:19:54.927Z,9.76
2023-04-15T04:22:04.826Z,9.74
2023-04-15T04:24:14.739Z,9.74
2023-04-15T04:26:24.736Z,9.73
2023-04-15T04:28:35.778Z,9.74
2023-04-15T04:30:45.832Z,9.75
2023-04-15T04:32:55.896Z,9.77
2023-04-15T04:35:05.725Z,9.78
2023-04-15T04:37:15.633Z,9.78
2023-04-15T04:39:26.483Z,9.78
2023-04-15T04:41:37.164Z,9.78
2023-04-15T04:43:46.962Z,9.77
2023-04-15T04:45:56.996Z,9.74
2023-04-15T04:48:07.513Z,9.73
2023-04-15T04:50:17.418Z,9.71
2023-04-15T04:52:27.122Z,9.68
2023-04-15T04:54:37.182Z,9.64
2023-04-15T04:56:46.953Z,9.63
2023-04-15T04:58:56.598Z,9.63
2023-04-15T05:01:06.826Z,9.63
2023-04-15T05:03:17.144Z,9.63
2023-04-15T05:05:27.538Z,9.62
2023-04-15T05:07:37.763Z,9.61
2023-04-15T05:09:47.502Z,9.59
2023-04-15T05:11:58.142Z,9.56
2023-04-15T05:14:08.924Z,9.55
2023-04-15T05:16:19.109Z,9.51
2023-04-15T05:18:29.817Z,9.48
2023-04-15T05:20:39.721Z,9.44
2023-04-15T05:22:49.815Z,9.41
2023-04-15T05:24:59.771Z,9.38
2023-04-15T05:27:11.227Z,9.33
2023-04-15T05:29:21.386Z,9.28
2023-04-15T05:31:31.247Z,9.22
2023-04-15T05:33:41.289Z,9.17
2023-04-15T05:35:51.054Z,9.11
2023-04-15T05:38:01.076Z,9.06
2023-04-15T05:40:12.516Z,9.02
2023-04-15T05:42:22.555Z,9.00
2023-04-15T05:44:32.365Z,8.97
2023-04-15T05:46:42.499Z,8.92
2023-04-15T05:48:53.342Z,8.88
2023-04-15T05:51:04.290Z,8.83
2023-04-15T05:53:14.206Z,8.77
2023-04-15T05:55:24.154Z,8.75
2023-04-15T05:57:34.244Z,8.70
2023-04-15T05:59:45.432Z,8.67
2023-04-15T06:01:55.842Z,8.65
2023-04-15T06:04:05.659Z,8.60
2023-04-15T06:06:15.945Z,8.55
2023-04-15T06:08:25.644Z,8.52
2023-04-15T06:10:37.228Z,8.52
2023-04-15T06:12:48.320Z,8.49
2023-04-15T06:15:00.030Z,8.47
2023-04-15T06:17:10.245Z,8.46
2023-04-15T06:19:20.188Z,8.44
2023-04-15T06:21:30.061Z,8.42
2023-04-15T06:23:41.521Z,8.42
2023-04-15T06:25:51.263Z,8.40
2023-04-15T06:28:00.785Z,8.34
2023-04-15T06:30:12.981Z,8.27
2023-04-15T06:32:23.046Z,8.22
2023-04-15T06:34:32.954Z,8.20
2023-04-15T06:36:42.482Z,8.18
2023-04-15T06:38:52.413Z,8.15
2023-04-15T06:41:05.246Z,8.11
2023-04-15T06:43:15.876Z,8.07
2023-04-15T06:45:25.638Z,8.05
2023-04-15T06:47:35.694Z,8.05
2023-04-15T06:49:45.534Z,8.05
2023-04-15T06:51:55.634Z,8.04
2023-04-15T06:54:06.693Z,8.03
2023-04-15T06:56:16.353Z,8.02
2023-04-15T06:58:26.282Z,8.00
2023-04-15T07:00:36.413Z,7.99
2023-04-15T07:02:47.300Z,7.97
2023-04-15T07:04:57.391Z,7.96
2023-04-15T07:07:07.421Z,7.94
2023-04-15T07:09:17.121Z,7.88
2023-04-15T07:11:27.759Z,7.86
2023-04-15T07:13:37.949Z,7.82
2023-04-15T07:15:47.679Z,7.81
2023-04-15T07:17:57.507Z,7.84
2023-04-15T07:20:08.008Z,7.86
2023-04-15T07:22:17.598Z,7.88
2023-04-15T07:24:27.382Z,7.88
2023-04-15T07:26:37.277Z,7.87
2023-04-15T07:28:47.935Z,7.86
2023-04-15T07:30:57.830Z,7.84
2023-04-15T07:33:08.402Z,7.84
2023-04-15T07:35:18.171Z,7.86
2023-04-15T07:37:28.983Z,7.86
2023-04-15T07:39:38.692Z,7.86
2023-04-15T07:41:49.516Z,7.88
2023-04-15T07:44:00.059Z,7.88
2023-04-15T07:46:10.745Z,7.89
2023-04-15T07:48:20.764Z,7.91
2023-04-15T07:50:30.714Z,7.92
2023-04-15T07:52:40.925Z,7.92
2023-04-15T07:54:50.795Z,7.91
2023-04-15T07:57:00.925Z,7.91
2023-04-15T07:59:10.582Z,7.91
2023-04-15T08:01:20.408Z,7.90
2023-04-15T08:03:30.235Z,7.90
2023-04-15T08:05:40.114Z,7.90
2023-04-15T08:07:50.030Z,7.90
2023-04-15T08:09:59.709Z,7.91
2023-04-15T08:12:13.261Z,7.91
2023-04-15T08:14:23.123Z,7.93
2023-04-15T08:16:33.549Z,7.96
2023-04-15T08:18:43.765Z,7.99
2023-04-15T08:20:53.743Z,8.01
2023-04-15T08:23:03.747Z,8.02
2023-04-15T08:25:13.830Z,8.06
2023-04-15T08:27:23.679Z,8.14
2023-04-15T08:29:34.239Z,8.22
2023-04-15T08:31:45.230Z,8.30
2023-04-15T08:33:57.306Z,8.35
2023-04-15T08:36:08.058Z,8.41
2023-04-15T08:38:18.318Z,8.43
2023-04-15T08:40:37.162Z,8.47
2023-04-15T08:42:51.185Z,8.52
2023-04-15T08:45:01.392Z,8.56
2023-04-15T08:47:14.454Z,8.60
2023-04-15T08:49:29.115Z,8.64
2023-04-15T08:51:39.351Z,8.67
2023-04-15T08:53:49.624Z,8.69
2023-04-15T08:56:04.826Z,8.69
2023-04-15T08:58:14.783Z,8.71
2023-04-15T09:00:25.536Z,8.73
2023-04-15T09:02:35.992Z,8.76
2023-04-15T09:04:45.952Z,8.78
2023-04-15T09:06:59.081Z,8.81
2023-04-15T09:09:09.312Z,8.83
2023-04-15T09:11:20.288Z,8.83
2023-04-15T09:13:31.930Z,8.82
2023-04-15T09:15:42.428Z,8.81
2023-04-15T09:17:52.217Z,8.80
2023-04-15T09:20:15.099Z,8.77
2023-04-15T09:22:23.414Z,8.77
2023-04-15T09:24:41.334Z,8.76
2023-04-15T09:26:54.234Z,8.74
2023-04-15T09:29:09.596Z,8.72
2023-04-15T09:31:21.279Z,8.72
2023-04-15T09:33:32.083Z,8.69
2023-04-15T09:35:42.946Z,8.68
2023-04-15T09:37:53.442Z,8.67
2023-04-15T09:40:03.451Z,8.66
2023-04-15T09:42:13.001Z,8.65
2023-04-15T09:44:31.623Z,8.63
2023-04-15T09:46:47.784Z,8.60
2023-04-15T09:49:12.123Z,8.58
2023-04-15T09:51:35.548Z,8.57
2023-04-15T09:53:45.182Z,8.57
2023-04-15T09:55:59.167Z,8.58
2023-04-15T09:58:19.667Z,8.59
2023-04-15T10:00:31.774Z,8.60
2023-04-15T10:02:39.670Z,8.61
2023-04-15T10:04:54.199Z,8.60
2023-04-15T10:07:05.863Z,8.60
2023-04-15T10:09:15.700Z,8.60
2023-04-15T10:11:27.488Z,8.59
2023-04-15T10:13:39.734Z,8.59
2023-04-15T10:15:52.536Z,8.58
2023-04-15T10:18:05.131Z,8.57
2023-04-15T10:20:15.002Z,8.56
2023-04-15T10:22:25.146Z,8.54
2023-04-15T10:24:35.775Z,8.53
2023-04-15T10:26:46.615Z,8.51
2023-04-15T10:28:59.540Z,8.50
2023-04-15T10:31:10.326Z,8.49
2023-04-15T10:33:22.155Z,8.50
2023-04-15T10:35:32.675Z,8.50
2023-04-15T10:37:43.164Z,8.50
2023-04-15T10:39:53.044Z,8.52
2023-04-15T10:42:12.891Z,8.53
2023-04-15T10:44:22.667Z,8.55
2023-04-15T10:46:41.274Z,8.57
2023-04-15T10:48:55.674Z,8.58
2023-04-15T10:51:06.706Z,8.57
2023-04-15T10:53:28.911Z,8.56
2023-04-15T10:55:39.187Z,8.56
2023-04-15T10:57:53.596Z,8.55
2023-04-15T11:00:14.527Z,8.53
2023-04-15T11:02:24.607Z,8.52
2023-04-15T11:04:55.549Z,8.51
2023-04-15T11:07:11.404Z,8.50
2023-04-15T11:09:37.273Z,8.51
2023-04-15T11:12:12.747Z,8.53
2023-04-15T11:14:22.884Z,8.56
2023-04-15T11:16:32.774Z,8.59
2023-04-15T11:18:42.682Z,8.62
2023-04-15T11:20:55.103Z,8.65
2023-04-15T11:23:14.745Z,8.68
2023-04-15T11:25:29.781Z,8.69
2023-04-15T11:27:39.562Z,8.71
2023-04-15T11:29:49.430Z,8.73
2023-04-15T11:32:09.096Z,8.75
2023-04-15T11:34:26.840Z,8.76
2023-04-15T11:36:37.452Z,8.76
2023-04-15T11:38:50.919Z,8.76
2023-04-15T11:41:00.932Z,8.77
2023-04-15T11:43:12.083Z,8.78
2023-04-15T11:45:22.484Z,8.78
2023-04-15T11:47:32.164Z,8.79
2023-04-15T11:49:41.967Z,8.79
2023-04-15T11:51:51.833Z,8.80
2023-04-15T11:54:01.650Z,8.81
2023-04-15T11:56:13.433Z,8.82
2023-04-15T11:58:25.180Z,8.83
2023-04-15T12:00:35.289Z,8.85
2023-04-15T12:02:45.245Z,8.85
2023-04-15T12:05:04.780Z,8.86
2023-04-15T12:07:14.863Z,8.87
2023-04-15T12:09:25.676Z,8.87
2023-04-15T12:11:37.890Z,8.87
2023-04-15T12:13:50.702Z,8.88
2023-04-15T12:16:01.719Z,8.88
2023-04-15T12:18:21.478Z,8.87
2023-04-15T12:20:32.849Z,8.86
2023-04-15T12:22:43.215Z,8.85
2023-04-15T12:24:58.832Z,8.83
2023-04-15T12:27:09.637Z,8.80
2023-04-15T12:29:20.100Z,8.78
2023-04-15T12:31:30.101Z,8.75
2023-04-15T12:33:39.956Z,8.72
2023-04-15T12:35:49.494Z,8.70
2023-04-15T12:37:59.368Z,8.67
2023-04-15T12:40:13.386Z,8.66
2023-04-15T12:42:23.249Z,8.66
2023-04-15T12:44:33.513Z,8.65
2023-04-15T12:46:43.226Z,8.66
2023-04-15T12:48:54.701Z,8.65
2023-04-15T12:51:07.155Z,8.67
2023-04-15T12:53:20.180Z,8.68
2023-04-15T12:55:30.995Z,8.68
2023-04-15T12:57:40.655Z,8.68
2023-04-15T12:59:50.703Z,8.69
2023-04-15T13:02:01.344Z,8.70
2023-04-15T13:04:11.329Z,8.70
2023-04-15T13:06:21.142Z,8.70
2023-04-15T13:08:30.581Z,8.71
2023-04-15T13:10:41.302Z,8.72
2023-04-15T13:12:54.137Z,8.72
2023-04-15T13:15:05.752Z,8.71
2023-04-15T13:17:15.567Z,8.70
2023-04-15T13:19:25.553Z,8.71
2023-04-15T13:21:36.544Z,8.71
2023-04-15T13:23:47.264Z,8.69
2023-04-15T13:25:56.896Z,8.68
2023-04-15T13:28:07.186Z,8.67
2023-04-15T13:30:17.727Z,8.65
2023-04-15T13:32:27.992Z,8.66
2023-04-15T13:34:37.907Z,8.65
2023-04-15T13:36:47.855Z,8.62
2023-04-15T13:38:57.576Z,8.60
2023-04-15T13:41:07.607Z,8.59
2023-04-15T13:43:17.976Z,8.58
2023-04-15T13:45:28.292Z,8.58
2023-04-15T13:47:38.407Z,8.58
2023-04-15T13:49:48.496Z,8.60
2023-04-15T13:51:58.399Z,8.60
2023-04-15T13:54:08.559Z,8.62
2023-04-15T13:56:18.797Z,8.63
2023-04-15T13:58:28.334Z,8.64
2023-04-15T14:00:38.173Z,8.64
2023-04-15T14:02:48.623Z,8.65
2023-04-15T14:04:58.576Z,8.67
2023-04-15T14:07:08.595Z,8.70
2023-04-15T14:09:18.898Z,8.72
2023-04-15T14:11:28.848Z,8.74
2023-04-15T14:13:38.672Z,8.74
2023-04-15T14:15:49.534Z,8.74
2023-04-15T14:17:59.888Z,8.74
2023-04-15T14:20:12.211Z,8.74
2023-04-15T14:22:22.071Z,8.74
2023-04-15T14:24:32.187Z,8.75
2023-04-15T14:26:41.841Z,8.76
2023-04-15T14:28:51.664Z,8.75
2023-04-15T14:31:02.408Z,8.76
2023-04-15T14:33:12.383Z,8.78
2023-04-15T14:35:22.229Z,8.79
2023-04-15T14:37:32.636Z,8.81
2023-04-15T14:39:42.320Z,8.83
2023-04-15T14:41:52.047Z,8.86
2023-04-15T14:44:01.920Z,8.87
2023-04-15T14:46:12.700Z,8.89
2023-04-15T14:48:22.301Z,8.91
2023-04-15T14:50:32.741Z,8.95
2023-04-15T14:52:42.823Z,8.98
2023-04-15T14:54:52.663Z,9.01
2023-04-15T14:57:03.711Z,9.04
2023-04-15T14:59:13.413Z,9.06
2023-04-15T15:01:23.157Z,9.07
2023-04-15T15:03:33.230Z,9.07
2023-04-15T15:05:44.460Z,9.06
2023-04-15T15:07:54.684Z,9.07
2023-04-15T15:10:04.767Z,9.06
2023-04-15T15:12:14.754Z,9.04
2023-04-15T15:14:24.677Z,9.04
2023-04-15T15:16:34.931Z,9.04
2023-04-15T15:18:44.874Z,9.04
2023-04-15T15:20:55.005Z,9.04
2023-04-15T15:23:04.879Z,9.05
2023-04-15T15:25:14.855Z,9.07
2023-04-15T15:27:24.535Z,9.10
2023-04-15T15:29:34.134Z,9.12
2023-04-15T15:31:44.307Z,9.15
2023-04-15T15:33:54.094Z,9.16
2023-04-15T15:36:03.901Z,9.17
2023-04-15T15:38:15.660Z,9.19
2023-04-15T15:40:26.116Z,9.25
2023-04-15T15:42:36.922Z,9.28
2023-04-15T15:44:46.822Z,9.33
2023-04-15T15:46:58.244Z,9.38
2023-04-15T15:49:08.625Z,9.40
2023-04-15T15:51:18.094Z,9.41
2023-04-15T15:53:27.977Z,9.40
2023-04-15T15:55:37.887Z,9.40
2023-04-15T15:57:47.655Z,9.39
2023-04-15T16:00:10.284Z,9.40
2023-04-15T16:02:40.014Z,9.38
2023-04-15T16:04:53.005Z,9.36
2023-04-15T16:07:03.314Z,9.35
2023-04-15T16:09:12.984Z,9.35
2023-04-15T16:11:22.703Z,9.34
2023-04-15T16:13:32.903Z,9.34
2023-04-15T16:15:42.811Z,9.33
2023-04-15T16:17:52.697Z,9.33
2023-04-15T16:20:05.893Z,9.32
2023-04-15T16:22:15.964Z,9.32
2023-04-15T16:24:26.283Z,9.32
2023-04-15T16:26:36.014Z,9.31
2023-04-15T16:28:46.076Z,9.31
2023-04-15T16:30:55.983Z,9.31
2023-04-15T16:33:05.932Z,9.31
2023-04-15T16:35:17.344Z,9.28
2023-04-15T16:37:27.739Z,9.29
2023-04-15T16:39:37.755Z,9.29
2023-04-15T16:41:47.623Z,9.30
2023-04-15T16:43:57.509Z,9.33
2023-04-15T16:46:07.160Z,9.37
2023-04-15T16:48:17.223Z,9.40
2023-04-15T16:50:27.292Z,9.41
2023-04-15T16:52:37.627Z,9.44
2023-04-15T16:54:47.883Z,9.46
2023-04-15T16:56:57.821Z,9.48
2023-04-15T16:59:07.627Z,9.53
2023-04-15T17:01:17.425Z,9.57
2023-04-15T17:03:27.392Z,9.57
2023-04-15T17:05:37.674Z,9.56
2023-04-15T17:07:47.466Z,9.55
2023-04-15T17:09:57.513Z,9.59
2023-04-15T17:12:07.925Z,9.64
2023-04-15T17:14:17.523Z,9.65
2023-04-15T17:16:27.157Z,9.69
2023-04-15T17:18:37.281Z,9.73
2023-04-15T17:20:47.642Z,9.78
2023-04-15T17:22:58.311Z,9.82
2023-04-15T17:25:09.561Z,9.87
2023-04-15T17:27:19.440Z,9.91
2023-04-15T17:29:29.429Z,9.95
2023-04-15T17:31:39.160Z,9.99
2023-04-15T17:34:00.859Z,10.06
2023-04-15T17:36:17.940Z,10.12
2023-04-15T17:38:27.792Z,10.17
2023-04-15T17:40:37.722Z,10.22
2023-04-15T17:42:47.908Z,10.28
2023-04-15T17:44:57.857Z,10.30
2023-04-15T17:47:07.982Z,10.34
2023-04-15T17:49:18.042Z,10.37
2023-04-15T17:51:28.683Z,10.42
2023-04-15T17:53:49.177Z,10.52
2023-04-15T17:55:59.411Z,10.60
2023-04-15T17:58:09.665Z,10.68
2023-04-15T18:00:20.641Z,10.77
2023-04-15T18:02:30.949Z,10.82
2023-04-15T18:04:41.670Z,10.85
2023-04-15T18:06:51.843Z,10.84
2023-04-15T18:09:02.106Z,10.85
2023-04-15T18:11:13.054Z,10.81
2023-04-15T18:13:22.550Z,10.75
2023-04-15T18:15:32.740Z,10.71
2023-04-15T18:17:43.140Z,10.66
2023-04-15T18:19:53.261Z,10.64
2023-04-15T18:22:04.484Z,10.59
2023-04-15T18:24:16.079Z,10.53
2023-04-15T18:26:26.261Z,10.50
2023-04-15T18:28:36.221Z,10.47
2023-04-15T18:30:46.670Z,10.46
2023-04-15T18:32:57.067Z,10.48
2023-04-15T18:35:07.872Z,10.51
2023-04-15T18:37:17.694Z,10.54
2023-04-15T18:39:27.794Z,10.56
2023-04-15T18:41:37.633Z,10.59
2023-04-15T18:43:47.356Z,10.64
2023-04-15T18:45:57.302Z,10.66
2023-04-15T18:48:07.556Z,10.70
2023-04-15T18:50:18.450Z,10.74
2023-04-15T18:52:28.356Z,10.76
2023-04-15T18:54:39.223Z,10.76
2023-04-15T18:56:49.560Z,10.78
2023-04-15T18:59:26.317Z,10.76
2023-04-15T19:01:29.876Z,10.76
2023-04-15T19:03:39.832Z,10.76
2023-04-15T19:05:49.671Z,10.78
2023-04-15T19:07:59.946Z,10.80
2023-04-15T19:10:11.052Z,10.82
2023-04-15T19:12:21.265Z,10.82
2023-04-15T19:14:31.162Z,10.84
2023-04-15T19:16:41.389Z,10.87
2023-04-15T19:18:51.571Z,10.92
2023-04-15T19:21:01.394Z,10.99
2023-04-15T19:23:12.111Z,11.08
2023-04-15T19:25:22.468Z,11.22
2023-04-15T19:27:32.633Z,11.41
2023-04-15T19:29:42.392Z,11.59
2023-04-15T19:31:52.057Z,11.71
2023-04-15T19:34:01.965Z,11.79
2023-04-15T19:36:12.417Z,11.85
2023-04-15T19:38:22.305Z,11.89
2023-04-15T19:40:32.803Z,11.94
2023-04-15T19:42:43.237Z,11.99
2023-04-15T19:44:53.439Z,12.03
2023-04-15T19:47:03.005Z,12.03
2023-04-15T19:49:12.836Z,12.07
2023-04-15T19:51:22.575Z,12.12
2023-04-15T19:53:32.264Z,12.13
2023-04-15T19:55:43.117Z,12.11
2023-04-15T19:57:53.335Z,12.12
2023-04-15T20:00:03.692Z,12.13
2023-04-15T20:02:15.222Z,12.13
2023-04-15T20:04:25.270Z,12.10
2023-04-15T20:06:35.106Z,12.09
2023-04-15T20:08:44.828Z,12.08
2023-04-15T20:10:55.124Z,12.11
2023-04-15T20:13:05.037Z,12.19
2023-04-15T20:15:15.326Z,12.25
2023-04-15T20:17:25.517Z,12.31
2023-04-15T20:19:36.087Z,12.36
2023-04-15T20:21:46.362Z,12.39
2023-04-15T20:23:56.482Z,12.37
2023-04-15T20:26:06.907Z,12.40
2023-04-15T20:28:18.687Z,12.45
2023-04-15T20:30:29.554Z,12.50
2023-04-15T20:32:39.244Z,12.57
2023-04-15T20:34:49.181Z,12.68
2023-04-15T20:36:59.661Z,12.79
2023-04-15T20:39:09.945Z,12.85
2023-04-15T20:41:19.618Z,12.88
2023-04-15T20:43:29.861Z,12.95
2023-04-15T20:45:40.826Z,13.02
2023-04-15T20:47:50.904Z,13.07
2023-04-15T20:50:00.558Z,13.07
2023-04-15T20:52:11.661Z,13.04
2023-04-15T20:54:21.441Z,12.99
2023-04-15T20:56:31.789Z,12.99
2023-04-15T20:58:42.058Z,13.02
2023-04-15T21:00:53.661Z,13.03
2023-04-15T21:03:05.633Z,13.01
2023-04-15T21:05:15.805Z,12.99
2023-04-15T21:07:25.930Z,12.96
2023-04-15T21:09:36.222Z,13.01
2023-04-15T21:14:02.697Z,13.14
2023-04-15T21:16:12.675Z,13.17
2023-04-15T21:18:22.804Z,13.18
2023-04-15T21:20:32.893Z,13.13
2023-04-15T21:22:42.652Z,13.05
2023-04-15T21:24:52.737Z,13.05
2023-04-15T21:27:02.682Z,13.13
2023-04-15T21:29:13.620Z,13.21
2023-04-15T21:31:24.819Z,13.34
2023-04-15T21:33:34.915Z,13.48
2023-04-15T21:35:44.737Z,13.59
2023-04-15T21:37:54.346Z,13.65
2023-04-15T21:40:04.814Z,13.64
2023-04-15T21:42:14.549Z,13.63
2023-04-15T21:44:24.425Z,13.57
2023-04-15T21:46:35.464Z,13.54
2023-04-15T21:48:45.775Z,13.46
2023-04-15T21:50:59.487Z,13.38
2023-04-15T21:53:11.897Z,13.30
2023-04-15T21:55:21.515Z,13.27
2023-04-15T21:57:31.687Z,13.27
2023-04-15T21:59:41.855Z,13.34
2023-04-15T22:01:51.900Z,13.46
2023-04-15T22:04:02.232Z,13.58
2023-04-15T22:06:12.387Z,13.57
2023-04-15T22:08:22.115Z,13.48
2023-04-15T22:10:31.947Z,13.39
2023-04-15T22:12:44.416Z,13.36
2023-04-15T22:14:52.565Z,13.45
2023-04-15T22:17:02.747Z,13.59
2023-04-15T22:19:12.654Z,13.73
2023-04-15T22:21:24.071Z,13.79
2023-04-15T22:23:33.704Z,13.85
2023-04-15T22:25:43.548Z,13.93
2023-04-15T22:27:53.306Z,14.04
2023-04-15T22:30:03.550Z,14.13
2023-04-15T22:32:13.364Z,14.14
2023-04-15T22:34:23.412Z,14.19
2023-04-15T22:36:34.908Z,14.18
2023-04-15T22:38:44.852Z,14.14
2023-04-15T22:40:55.429Z,14.13
2023-04-15T22:43:06.681Z,14.08
2023-04-15T22:45:17.036Z,14.01
2023-04-15T22:47:26.905Z,13.90
2023-04-15T22:49:37.220Z,13.86
2023-04-15T22:51:46.988Z,13.89
2023-04-15T22:53:56.952Z,13.94
2023-04-15T22:56:07.703Z,13.99
2023-04-15T22:58:18.750Z,14.02
2023-04-15T23:00:28.915Z,13.96
2023-04-15T23:02:38.892Z,13.89
2023-04-15T23:04:49.054Z,13.85
2023-04-15T23:06:59.072Z,13.81
2023-04-15T23:09:09.214Z,13.84
2023-04-15T23:11:19.381Z,13.92
2023-04-15T23:13:29.707Z,13.97
2023-04-15T23:15:39.969Z,13.99
2023-04-15T23:17:49.963Z,14.05
2023-04-15T23:20:00.101Z,14.10
2023-04-15T23:22:11.151Z,14.10
2023-04-15T23:24:21.006Z,14.05
2023-04-15T23:26:31.562Z,14.01
2023-04-15T23:28:41.530Z,14.04
2023-04-15T23:30:51.647Z,14.05
2023-04-15T23:33:02.244Z,14.11
2023-04-15T23:35:13.278Z,14.20
2023-04-15T23:37:23.261Z,14.28
2023-04-15T23:39:32.972Z,14.34
2023-04-15T23:41:42.782Z,14.40
2023-04-15T23:43:52.450Z,14.45
2023-04-15T23:46:02.445Z,14.53
2023-04-15T23:48:12.601Z,14.58
2023-04-15T23:50:22.502Z,14.62
2023-04-15T23:52:32.279Z,14.56
2023-04-15T23:54:41.982Z,14.54
2023-04-15T23:56:52.102Z,14.51
2023-04-15T23:59:02.062Z,14.50
